Pocahontas, Illinois
Current Conditions -  °F | °C
As of 8:55 PM on Wednesday 26 Nov 2014 (Local Time) from K3LF Reporting Station
Light Snow Light Snow  
Wind Chill: 26°   Ceiling: 600
Heat Index: 31°   Visibility: 4mi
Dew Point: 29°   Wind: 5mph
Humidity: 93%   Direction: 40°NE
Pressure: 30.1"   Gusts: NA
Location:  38.83°N, 89.54°W
Report Text: K3LF 270255Z AUTO 04004KT 4SM -SN OVC006 M01/M02 A3010 RMK AO2 T10081018
Loading
Personal Weather Stations






























Interactive Weather Map New forecast layout! Learn more

10-Day Weather Forecast

Advertisements
Track Severe Weather on mobile